sensor_id;sensor_type;location;lat;lon;timestamp;temperature;humidity
63289;DHT22;49412;48.162;-1.978;2022-10-14T00:00:12;16.20;99.90
63289;DHT22;49412;48.162;-1.978;2022-10-14T00:02:38;16.20;99.90
63289;DHT22;49412;48.162;-1.978;2022-10-14T00:05:03;16.20;99.90
63289;DHT22;49412;48.162;-1.978;2022-10-14T00:07:29;16.30;99.90
63289;DHT22;49412;48.162;-1.978;2022-10-14T00:09:55;16.20;99.90
63289;DHT22;49412;48.162;-1.978;2022-10-14T00:12:20;16.20;99.90
63289;DHT22;49412;48.162;-1.978;2022-10-14T00:14:46;16.20;99.90
63289;DHT22;49412;48.162;-1.978;2022-10-14T00:17:12;16.30;99.90
63289;DHT22;49412;48.162;-1.978;2022-10-14T00:19:37;16.10;99.90
63289;DHT22;49412;48.162;-1.978;2022-10-14T00:22:03;16.10;99.90
63289;DHT22;49412;48.162;-1.978;2022-10-14T00:24:28;16.00;99.90
63289;DHT22;49412;48.162;-1.978;2022-10-14T00:26:54;16.00;99.90
63289;DHT22;49412;48.162;-1.978;2022-10-14T00:29:19;16.00;99.90
63289;DHT22;49412;48.162;-1.978;2022-10-14T00:31:45;16.00;99.90
63289;DHT22;49412;48.162;-1.978;2022-10-14T00:34:11;16.00;99.90
63289;DHT22;49412;48.162;-1.978;2022-10-14T00:36:38;15.90;99.90
63289;DHT22;49412;48.162;-1.978;2022-10-14T00:39:05;15.80;99.90
63289;DHT22;49412;48.162;-1.978;2022-10-14T00:41:31;15.80;99.90
63289;DHT22;49412;48.162;-1.978;2022-10-14T00:44:04;15.80;99.90
63289;DHT22;49412;48.162;-1.978;2022-10-14T00:46:34;15.70;99.90
63289;DHT22;49412;48.162;-1.978;2022-10-14T00:49:01;15.80;99.90
63289;DHT22;49412;48.162;-1.978;2022-10-14T00:51:27;15.80;99.90
63289;DHT22;49412;48.162;-1.978;2022-10-14T00:53:53;15.90;99.90
63289;DHT22;49412;48.162;-1.978;2022-10-14T00:56:21;15.90;99.90
63289;DHT22;49412;48.162;-1.978;2022-10-14T00:58:46;16.00;99.90
63289;DHT22;49412;48.162;-1.978;2022-10-14T01:01:12;16.00;99.90
63289;DHT22;49412;48.162;-1.978;2022-10-14T01:03:38;16.10;99.90
63289;DHT22;49412;48.162;-1.978;2022-10-14T01:08:51;16.10;99.90
63289;DHT22;49412;48.162;-1.978;2022-10-14T01:11:22;16.10;99.90
63289;DHT22;49412;48.162;-1.978;2022-10-14T01:13:57;16.20;99.90
63289;DHT22;49412;48.162;-1.978;2022-10-14T01:16:37;16.20;99.90
63289;DHT22;49412;48.162;-1.978;2022-10-14T01:21:42;16.20;99.90
63289;DHT22;49412;48.162;-1.978;2022-10-14T01:29:16;16.20;99.90
63289;DHT22;49412;48.162;-1.978;2022-10-14T01:31:46;16.20;99.90
63289;DHT22;49412;48.162;-1.978;2022-10-14T01:34:12;16.20;99.90
63289;DHT22;49412;48.162;-1.978;2022-10-14T01:36:43;16.20;99.90
63289;DHT22;49412;48.162;-1.978;2022-10-14T01:39:11;16.20;99.90
63289;DHT22;49412;48.162;-1.978;2022-10-14T01:41:46;16.20;99.90
63289;DHT22;49412;48.162;-1.978;2022-10-14T01:44:14;16.20;99.90
63289;DHT22;49412;48.162;-1.978;2022-10-14T01:46:42;16.20;99.90
63289;DHT22;49412;48.162;-1.978;2022-10-14T01:49:13;16.20;99.90
63289;DHT22;49412;48.162;-1.978;2022-10-14T01:51:49;16.10;99.90
63289;DHT22;49412;48.162;-1.978;2022-10-14T01:54:18;16.10;99.90
63289;DHT22;49412;48.162;-1.978;2022-10-14T01:56:45;16.10;99.90
63289;DHT22;49412;48.162;-1.978;2022-10-14T01:59:12;16.00;99.90
63289;DHT22;49412;48.162;-1.978;2022-10-14T02:01:39;16.10;99.90
63289;DHT22;49412;48.162;-1.978;2022-10-14T02:04:15;16.10;99.90
63289;DHT22;49412;48.162;-1.978;2022-10-14T02:06:40;16.10;99.90
63289;DHT22;49412;48.162;-1.978;2022-10-14T02:09:15;15.90;99.90
63289;DHT22;49412;48.162;-1.978;2022-10-14T02:11:50;15.90;99.90
63289;DHT22;49412;48.162;-1.978;2022-10-14T02:16:54;15.90;99.90
63289;DHT22;49412;48.162;-1.978;2022-10-14T02:19:43;15.70;99.90
63289;DHT22;49412;48.162;-1.978;2022-10-14T02:22:15;15.90;99.90
63289;DHT22;49412;48.162;-1.978;2022-10-14T02:24:46;16.00;99.90
63289;DHT22;49412;48.162;-1.978;2022-10-14T02:27:16;16.00;99.90
63289;DHT22;49412;48.162;-1.978;2022-10-14T02:29:43;16.00;99.90
63289;DHT22;49412;48.162;-1.978;2022-10-14T02:32:11;15.70;99.90
63289;DHT22;49412;48.162;-1.978;2022-10-14T02:34:38;15.40;99.90
63289;DHT22;49412;48.162;-1.978;2022-10-14T02:37:05;15.20;99.90
63289;DHT22;49412;48.162;-1.978;2022-10-14T02:39:33;15.10;99.90
63289;DHT22;49412;48.162;-1.978;2022-10-14T02:42:00;15.10;99.90
63289;DHT22;49412;48.162;-1.978;2022-10-14T02:44:26;15.20;99.90
63289;DHT22;49412;48.162;-1.978;2022-10-14T02:46:53;15.20;99.90
63289;DHT22;49412;48.162;-1.978;2022-10-14T02:49:19;15.20;99.90
63289;DHT22;49412;48.162;-1.978;2022-10-14T02:51:45;15.20;99.90
63289;DHT22;49412;48.162;-1.978;2022-10-14T02:54:10;15.20;99.90
63289;DHT22;49412;48.162;-1.978;2022-10-14T02:56:36;15.20;99.90
63289;DHT22;49412;48.162;-1.978;2022-10-14T02:59:01;15.20;99.90
63289;DHT22;49412;48.162;-1.978;2022-10-14T03:01:27;15.00;99.90
63289;DHT22;49412;48.162;-1.978;2022-10-14T03:03:53;15.00;99.90
63289;DHT22;49412;48.162;-1.978;2022-10-14T03:06:18;14.90;99.90
63289;DHT22;49412;48.162;-1.978;2022-10-14T03:08:44;14.90;99.90
63289;DHT22;49412;48.162;-1.978;2022-10-14T03:11:09;14.90;99.90
63289;DHT22;49412;48.162;-1.978;2022-10-14T03:13:35;14.90;99.90
63289;DHT22;49412;48.162;-1.978;2022-10-14T03:16:00;14.90;99.90
63289;DHT22;49412;48.162;-1.978;2022-10-14T03:18:26;14.80;99.90
63289;DHT22;49412;48.162;-1.978;2022-10-14T03:20:52;14.80;99.90
63289;DHT22;49412;48.162;-1.978;2022-10-14T03:23:17;14.80;99.90
63289;DHT22;49412;48.162;-1.978;2022-10-14T03:25:43;14.70;99.90
63289;DHT22;49412;48.162;-1.978;2022-10-14T03:28:09;14.70;99.90
63289;DHT22;49412;48.162;-1.978;2022-10-14T03:30:35;14.80;99.90
63289;DHT22;49412;48.162;-1.978;2022-10-14T03:33:00;14.80;99.90
63289;DHT22;49412;48.162;-1.978;2022-10-14T03:35:26;14.90;99.90
63289;DHT22;49412;48.162;-1.978;2022-10-14T03:37:51;14.90;99.90
63289;DHT22;49412;48.162;-1.978;2022-10-14T03:40:20;15.00;99.90
63289;DHT22;49412;48.162;-1.978;2022-10-14T03:42:46;14.90;99.90
63289;DHT22;49412;48.162;-1.978;2022-10-14T03:45:11;14.80;99.90
63289;DHT22;49412;48.162;-1.978;2022-10-14T03:47:37;14.70;99.90
63289;DHT22;49412;48.162;-1.978;2022-10-14T03:50:03;14.80;99.90
63289;DHT22;49412;48.162;-1.978;2022-10-14T03:52:29;14.90;99.90
63289;DHT22;49412;48.162;-1.978;2022-10-14T03:54:55;15.10;99.90
63289;DHT22;49412;48.162;-1.978;2022-10-14T03:57:21;15.00;99.90
63289;DHT22;49412;48.162;-1.978;2022-10-14T03:59:46;14.70;99.90
63289;DHT22;49412;48.162;-1.978;2022-10-14T04:02:12;14.80;99.90
63289;DHT22;49412;48.162;-1.978;2022-10-14T04:04:37;14.90;99.90
63289;DHT22;49412;48.162;-1.978;2022-10-14T04:07:03;14.90;99.90
63289;DHT22;49412;48.162;-1.978;2022-10-14T04:09:29;15.00;99.90
63289;DHT22;49412;48.162;-1.978;2022-10-14T04:11:54;15.10;99.90
63289;DHT22;49412;48.162;-1.978;2022-10-14T04:14:24;14.90;99.90
63289;DHT22;49412;48.162;-1.978;2022-10-14T04:16:51;15.10;99.90
63289;DHT22;49412;48.162;-1.978;2022-10-14T04:19:16;15.20;99.90
63289;DHT22;49412;48.162;-1.978;2022-10-14T04:21:42;15.10;99.90
63289;DHT22;49412;48.162;-1.978;2022-10-14T04:24:08;15.00;99.90
63289;DHT22;49412;48.162;-1.978;2022-10-14T04:26:34;14.90;99.90
63289;DHT22;49412;48.162;-1.978;2022-10-14T04:28:59;14.90;99.90
63289;DHT22;49412;48.162;-1.978;2022-10-14T04:31:25;14.80;99.90
63289;DHT22;49412;48.162;-1.978;2022-10-14T04:33:51;14.80;99.90
63289;DHT22;49412;48.162;-1.978;2022-10-14T04:36:16;14.80;99.90
63289;DHT22;49412;48.162;-1.978;2022-10-14T04:38:42;14.90;99.90
63289;DHT22;49412;48.162;-1.978;2022-10-14T04:41:07;14.80;99.90
63289;DHT22;49412;48.162;-1.978;2022-10-14T04:43:33;14.90;99.90
63289;DHT22;49412;48.162;-1.978;2022-10-14T04:45:59;14.90;99.90
63289;DHT22;49412;48.162;-1.978;2022-10-14T04:48:24;15.00;99.90
63289;DHT22;49412;48.162;-1.978;2022-10-14T04:50:50;14.90;99.90
63289;DHT22;49412;48.162;-1.978;2022-10-14T04:53:16;14.90;99.90
63289;DHT22;49412;48.162;-1.978;2022-10-14T04:55:43;14.90;99.90
63289;DHT22;49412;48.162;-1.978;2022-10-14T04:58:08;14.90;99.90
63289;DHT22;49412;48.162;-1.978;2022-10-14T05:00:34;14.80;99.90
63289;DHT22;49412;48.162;-1.978;2022-10-14T05:02:59;14.80;99.90
63289;DHT22;49412;48.162;-1.978;2022-10-14T05:05:27;14.80;99.90
63289;DHT22;49412;48.162;-1.978;2022-10-14T05:07:52;14.80;99.90
63289;DHT22;49412;48.162;-1.978;2022-10-14T05:10:18;14.80;99.90
63289;DHT22;49412;48.162;-1.978;2022-10-14T05:12:43;14.80;99.90
63289;DHT22;49412;48.162;-1.978;2022-10-14T05:15:09;14.70;99.90
63289;DHT22;49412;48.162;-1.978;2022-10-14T05:17:36;14.60;99.90
63289;DHT22;49412;48.162;-1.978;2022-10-14T05:20:02;14.60;99.90
63289;DHT22;49412;48.162;-1.978;2022-10-14T05:22:28;14.60;99.90
63289;DHT22;49412;48.162;-1.978;2022-10-14T05:24:53;14.50;99.90
63289;DHT22;49412;48.162;-1.978;2022-10-14T05:27:19;14.50;99.90
63289;DHT22;49412;48.162;-1.978;2022-10-14T05:29:44;14.50;99.90
63289;DHT22;49412;48.162;-1.978;2022-10-14T05:32:10;14.40;99.90
63289;DHT22;49412;48.162;-1.978;2022-10-14T05:34:36;14.30;99.90
63289;DHT22;49412;48.162;-1.978;2022-10-14T05:37:01;14.30;99.90
63289;DHT22;49412;48.162;-1.978;2022-10-14T05:39:27;14.30;99.90
63289;DHT22;49412;48.162;-1.978;2022-10-14T05:41:52;14.20;99.90
63289;DHT22;49412;48.162;-1.978;2022-10-14T05:44:18;14.10;99.90
63289;DHT22;49412;48.162;-1.978;2022-10-14T05:46:44;14.10;99.90
63289;DHT22;49412;48.162;-1.978;2022-10-14T05:49:10;14.00;99.90
63289;DHT22;49412;48.162;-1.978;2022-10-14T05:51:35;14.00;99.90
63289;DHT22;49412;48.162;-1.978;2022-10-14T05:54:01;14.00;99.90
63289;DHT22;49412;48.162;-1.978;2022-10-14T05:56:27;13.90;99.90
63289;DHT22;49412;48.162;-1.978;2022-10-14T05:58:53;14.00;99.90
63289;DHT22;49412;48.162;-1.978;2022-10-14T06:01:18;13.90;99.90
63289;DHT22;49412;48.162;-1.978;2022-10-14T06:03:44;13.90;99.90
63289;DHT22;49412;48.162;-1.978;2022-10-14T06:06:11;13.90;99.90
63289;DHT22;49412;48.162;-1.978;2022-10-14T06:08:37;13.90;99.90
63289;DHT22;49412;48.162;-1.978;2022-10-14T06:11:02;13.90;99.90
63289;DHT22;49412;48.162;-1.978;2022-10-14T06:13:28;13.90;99.90
63289;DHT22;49412;48.162;-1.978;2022-10-14T06:15:54;13.90;99.90
63289;DHT22;49412;48.162;-1.978;2022-10-14T06:18:20;14.00;99.90
63289;DHT22;49412;48.162;-1.978;2022-10-14T06:20:52;13.90;99.90
63289;DHT22;49412;48.162;-1.978;2022-10-14T06:23:17;14.00;99.90
63289;DHT22;49412;48.162;-1.978;2022-10-14T06:25:43;13.90;99.90
63289;DHT22;49412;48.162;-1.978;2022-10-14T06:28:09;14.00;99.90
63289;DHT22;49412;48.162;-1.978;2022-10-14T06:30:34;14.00;99.90
63289;DHT22;49412;48.162;-1.978;2022-10-14T06:33:00;13.90;99.90
63289;DHT22;49412;48.162;-1.978;2022-10-14T06:35:25;14.00;99.90
63289;DHT22;49412;48.162;-1.978;2022-10-14T06:37:51;14.00;99.90
63289;DHT22;49412;48.162;-1.978;2022-10-14T06:40:17;14.00;99.90
63289;DHT22;49412;48.162;-1.978;2022-10-14T06:42:42;14.00;99.90
63289;DHT22;49412;48.162;-1.978;2022-10-14T06:45:08;14.00;99.90
63289;DHT22;49412;48.162;-1.978;2022-10-14T06:47:34;14.00;99.90
63289;DHT22;49412;48.162;-1.978;2022-10-14T06:49:59;14.00;99.90
63289;DHT22;49412;48.162;-1.978;2022-10-14T06:52:25;14.00;99.90
63289;DHT22;49412;48.162;-1.978;2022-10-14T06:54:51;14.00;99.90
63289;DHT22;49412;48.162;-1.978;2022-10-14T06:57:16;14.00;99.90
63289;DHT22;49412;48.162;-1.978;2022-10-14T06:59:42;14.00;99.90
63289;DHT22;49412;48.162;-1.978;2022-10-14T07:02:08;14.00;99.90
63289;DHT22;49412;48.162;-1.978;2022-10-14T07:04:34;14.00;99.90
63289;DHT22;49412;48.162;-1.978;2022-10-14T07:06:59;14.00;99.90
63289;DHT22;49412;48.162;-1.978;2022-10-14T07:09:25;14.00;99.90
63289;DHT22;49412;48.162;-1.978;2022-10-14T07:11:50;14.00;99.90
63289;DHT22;49412;48.162;-1.978;2022-10-14T07:14:16;14.10;99.90
63289;DHT22;49412;48.162;-1.978;2022-10-14T07:16:42;14.10;99.90
63289;DHT22;49412;48.162;-1.978;2022-10-14T07:19:07;14.10;99.90
63289;DHT22;49412;48.162;-1.978;2022-10-14T07:21:33;14.30;99.90
63289;DHT22;49412;48.162;-1.978;2022-10-14T07:23:59;14.30;99.90
63289;DHT22;49412;48.162;-1.978;2022-10-14T07:26:24;14.20;99.90
63289;DHT22;49412;48.162;-1.978;2022-10-14T07:28:50;14.30;99.90
63289;DHT22;49412;48.162;-1.978;2022-10-14T07:31:16;14.20;99.90
63289;DHT22;49412;48.162;-1.978;2022-10-14T07:33:41;14.30;99.90
63289;DHT22;49412;48.162;-1.978;2022-10-14T07:36:08;14.30;99.90
63289;DHT22;49412;48.162;-1.978;2022-10-14T07:38:34;14.30;99.90
63289;DHT22;49412;48.162;-1.978;2022-10-14T07:41:01;14.40;99.90
63289;DHT22;49412;48.162;-1.978;2022-10-14T07:43:27;14.50;99.90
63289;DHT22;49412;48.162;-1.978;2022-10-14T07:45:53;14.50;99.90
63289;DHT22;49412;48.162;-1.978;2022-10-14T07:48:28;14.50;99.90
63289;DHT22;49412;48.162;-1.978;2022-10-14T07:50:54;14.60;99.90
63289;DHT22;49412;48.162;-1.978;2022-10-14T07:53:20;14.60;99.90
63289;DHT22;49412;48.162;-1.978;2022-10-14T07:55:46;14.70;99.90
63289;DHT22;49412;48.162;-1.978;2022-10-14T07:58:20;14.70;99.90
63289;DHT22;49412;48.162;-1.978;2022-10-14T08:00:46;14.70;99.90
63289;DHT22;49412;48.162;-1.978;2022-10-14T08:03:13;14.70;99.90
63289;DHT22;49412;48.162;-1.978;2022-10-14T08:05:39;14.80;99.90
63289;DHT22;49412;48.162;-1.978;2022-10-14T08:08:05;14.90;99.90
63289;DHT22;49412;48.162;-1.978;2022-10-14T08:10:31;15.00;99.90
63289;DHT22;49412;48.162;-1.978;2022-10-14T08:12:57;15.00;99.90
63289;DHT22;49412;48.162;-1.978;2022-10-14T08:15:22;15.10;99.90
63289;DHT22;49412;48.162;-1.978;2022-10-14T08:17:53;15.10;99.90
63289;DHT22;49412;48.162;-1.978;2022-10-14T08:20:18;15.20;99.90
63289;DHT22;49412;48.162;-1.978;2022-10-14T08:22:44;15.40;99.90
63289;DHT22;49412;48.162;-1.978;2022-10-14T08:25:09;15.40;99.90
63289;DHT22;49412;48.162;-1.978;2022-10-14T08:27:35;15.60;99.90
63289;DHT22;49412;48.162;-1.978;2022-10-14T08:30:01;15.60;99.90
63289;DHT22;49412;48.162;-1.978;2022-10-14T08:32:26;15.70;99.90
63289;DHT22;49412;48.162;-1.978;2022-10-14T08:34:52;15.80;99.90
63289;DHT22;49412;48.162;-1.978;2022-10-14T08:37:20;15.90;99.90
63289;DHT22;49412;48.162;-1.978;2022-10-14T08:39:46;16.00;99.90
63289;DHT22;49412;48.162;-1.978;2022-10-14T08:42:33;16.10;99.90
63289;DHT22;49412;48.162;-1.978;2022-10-14T08:45:01;16.10;99.90
63289;DHT22;49412;48.162;-1.978;2022-10-14T08:47:33;16.20;99.90
63289;DHT22;49412;48.162;-1.978;2022-10-14T08:54:57;16.90;99.90
63289;DHT22;49412;48.162;-1.978;2022-10-14T08:57:26;17.10;99.90
63289;DHT22;49412;48.162;-1.978;2022-10-14T08:59:51;17.30;99.90
63289;DHT22;49412;48.162;-1.978;2022-10-14T09:04:52;17.40;99.90
63289;DHT22;49412;48.162;-1.978;2022-10-14T09:07:18;17.60;99.90
63289;DHT22;49412;48.162;-1.978;2022-10-14T09:09:44;17.70;99.90
63289;DHT22;49412;48.162;-1.978;2022-10-14T09:12:13;17.80;99.90
63289;DHT22;49412;48.162;-1.978;2022-10-14T09:14:45;17.80;99.90
63289;DHT22;49412;48.162;-1.978;2022-10-14T09:17:21;17.80;99.90
63289;DHT22;49412;48.162;-1.978;2022-10-14T09:22:29;17.90;99.90
63289;DHT22;49412;48.162;-1.978;2022-10-14T09:24:56;18.00;99.90
63289;DHT22;49412;48.162;-1.978;2022-10-14T09:27:22;18.00;99.90
63289;DHT22;49412;48.162;-1.978;2022-10-14T09:29:48;18.20;99.90
63289;DHT22;49412;48.162;-1.978;2022-10-14T09:32:35;18.20;99.90
63289;DHT22;49412;48.162;-1.978;2022-10-14T09:34:59;18.30;99.90
63289;DHT22;49412;48.162;-1.978;2022-10-14T09:37:26;18.40;99.90
63289;DHT22;49412;48.162;-1.978;2022-10-14T09:39:53;18.40;99.90
63289;DHT22;49412;48.162;-1.978;2022-10-14T09:42:21;18.60;99.90
63289;DHT22;49412;48.162;-1.978;2022-10-14T09:47:34;18.70;99.90
63289;DHT22;49412;48.162;-1.978;2022-10-14T09:50:00;19.00;99.90
63289;DHT22;49412;48.162;-1.978;2022-10-14T09:52:25;19.20;99.90
63289;DHT22;49412;48.162;-1.978;2022-10-14T09:54:56;19.30;99.90
63289;DHT22;49412;48.162;-1.978;2022-10-14T09:57:23;19.40;99.90
63289;DHT22;49412;48.162;-1.978;2022-10-14T09:59:59;19.60;99.90
63289;DHT22;49412;48.162;-1.978;2022-10-14T10:02:36;19.70;99.90
63289;DHT22;49412;48.162;-1.978;2022-10-14T10:08:03;19.80;99.90
63289;DHT22;49412;48.162;-1.978;2022-10-14T10:10:28;19.70;99.90
63289;DHT22;49412;48.162;-1.978;2022-10-14T10:12:55;19.70;99.90
63289;DHT22;49412;48.162;-1.978;2022-10-14T10:15:21;19.60;99.90
63289;DHT22;49412;48.162;-1.978;2022-10-14T10:17:47;19.60;99.90
63289;DHT22;49412;48.162;-1.978;2022-10-14T10:22:44;19.70;99.90
63289;DHT22;49412;48.162;-1.978;2022-10-14T10:25:16;19.60;99.90
63289;DHT22;49412;48.162;-1.978;2022-10-14T10:27:43;19.50;99.90
63289;DHT22;49412;48.162;-1.978;2022-10-14T10:47:58;22.20;99.90
63289;DHT22;49412;48.162;-1.978;2022-10-14T10:53:20;21.80;99.90
63289;DHT22;49412;48.162;-1.978;2022-10-14T10:55:56;21.60;99.90
63289;DHT22;49412;48.162;-1.978;2022-10-14T11:01:08;21.40;99.90
63289;DHT22;49412;48.162;-1.978;2022-10-14T11:06:33;21.80;99.90
63289;DHT22;49412;48.162;-1.978;2022-10-14T11:22:51;21.70;99.90
63289;DHT22;49412;48.162;-1.978;2022-10-14T11:25:25;21.50;99.90
63289;DHT22;49412;48.162;-1.978;2022-10-14T11:30:46;20.90;99.90
63289;DHT22;49412;48.162;-1.978;2022-10-14T11:33:17;20.50;99.90
63289;DHT22;49412;48.162;-1.978;2022-10-14T11:50:54;20.80;99.90
63289;DHT22;49412;48.162;-1.978;2022-10-14T11:53:23;20.60;99.90
63289;DHT22;49412;48.162;-1.978;2022-10-14T11:55:56;20.40;99.90
63289;DHT22;49412;48.162;-1.978;2022-10-14T11:58:25;20.30;99.90
63289;DHT22;49412;48.162;-1.978;2022-10-14T12:00:52;20.30;99.90
63289;DHT22;49412;48.162;-1.978;2022-10-14T12:05:55;19.80;99.90
63289;DHT22;49412;48.162;-1.978;2022-10-14T12:08:43;19.70;99.90
63289;DHT22;49412;48.162;-1.978;2022-10-14T12:11:30;19.80;99.90
63289;DHT22;49412;48.162;-1.978;2022-10-14T12:16:42;19.90;99.90
63289;DHT22;49412;48.162;-1.978;2022-10-14T12:19:09;19.70;99.90
63289;DHT22;49412;48.162;-1.978;2022-10-14T12:21:38;19.50;99.90
63289;DHT22;49412;48.162;-1.978;2022-10-14T12:24:12;19.40;99.90
63289;DHT22;49412;48.162;-1.978;2022-10-14T12:29:16;19.30;99.90
63289;DHT22;49412;48.162;-1.978;2022-10-14T12:31:47;19.30;99.90
63289;DHT22;49412;48.162;-1.978;2022-10-14T12:34:14;19.30;99.90
63289;DHT22;49412;48.162;-1.978;2022-10-14T12:36:40;19.30;99.90
63289;DHT22;49412;48.162;-1.978;2022-10-14T12:41:49;19.40;99.90
63289;DHT22;49412;48.162;-1.978;2022-10-14T12:44:17;19.40;99.90
63289;DHT22;49412;48.162;-1.978;2022-10-14T12:46:43;19.40;99.90
63289;DHT22;49412;48.162;-1.978;2022-10-14T12:52:08;19.30;99.90
63289;DHT22;49412;48.162;-1.978;2022-10-14T12:54:34;19.10;99.90
63289;DHT22;49412;48.162;-1.978;2022-10-14T12:57:02;19.10;99.90
63289;DHT22;49412;48.162;-1.978;2022-10-14T12:59:29;19.00;99.90
63289;DHT22;49412;48.162;-1.978;2022-10-14T13:02:00;18.90;99.90
63289;DHT22;49412;48.162;-1.978;2022-10-14T13:04:29;18.90;99.90
63289;DHT22;49412;48.162;-1.978;2022-10-14T13:09:39;19.30;99.90
63289;DHT22;49412;48.162;-1.978;2022-10-14T13:19:52;19.40;99.90
63289;DHT22;49412;48.162;-1.978;2022-10-14T13:24:59;19.10;99.90
63289;DHT22;49412;48.162;-1.978;2022-10-14T13:32:28;19.00;99.90
63289;DHT22;49412;48.162;-1.978;2022-10-14T13:35:04;18.80;99.90
63289;DHT22;49412;48.162;-1.978;2022-10-14T13:37:33;18.90;99.90
63289;DHT22;49412;48.162;-1.978;2022-10-14T13:42:43;19.70;99.90
63289;DHT22;49412;48.162;-1.978;2022-10-14T13:45:11;20.10;99.90
63289;DHT22;49412;48.162;-1.978;2022-10-14T13:47:39;20.20;99.90
63289;DHT22;49412;48.162;-1.978;2022-10-14T13:50:07;20.20;99.90
63289;DHT22;49412;48.162;-1.978;2022-10-14T13:52:35;20.20;99.90
63289;DHT22;49412;48.162;-1.978;2022-10-14T13:55:17;19.90;99.90
63289;DHT22;49412;48.162;-1.978;2022-10-14T13:57:57;19.90;99.90
63289;DHT22;49412;48.162;-1.978;2022-10-14T14:00:27;19.70;99.90
63289;DHT22;49412;48.162;-1.978;2022-10-14T14:02:53;19.60;99.90
63289;DHT22;49412;48.162;-1.978;2022-10-14T14:05:19;19.70;99.90
63289;DHT22;49412;48.162;-1.978;2022-10-14T14:07:45;19.80;99.90
63289;DHT22;49412;48.162;-1.978;2022-10-14T14:10:15;19.90;99.90
63289;DHT22;49412;48.162;-1.978;2022-10-14T14:12:41;19.80;99.90
63289;DHT22;49412;48.162;-1.978;2022-10-14T14:15:11;19.80;99.90
63289;DHT22;49412;48.162;-1.978;2022-10-14T14:17:42;19.90;99.90
63289;DHT22;49412;48.162;-1.978;2022-10-14T14:20:10;20.00;99.90
63289;DHT22;49412;48.162;-1.978;2022-10-14T14:22:40;20.10;99.90
63289;DHT22;49412;48.162;-1.978;2022-10-14T14:27:54;20.40;99.90
63289;DHT22;49412;48.162;-1.978;2022-10-14T14:30:29;20.40;99.90
63289;DHT22;49412;48.162;-1.978;2022-10-14T14:32:57;20.20;99.90
63289;DHT22;49412;48.162;-1.978;2022-10-14T14:35:23;20.10;99.90
63289;DHT22;49412;48.162;-1.978;2022-10-14T14:37:48;20.10;99.90
63289;DHT22;49412;48.162;-1.978;2022-10-14T14:42:40;20.20;99.90
63289;DHT22;49412;48.162;-1.978;2022-10-14T14:45:10;20.20;99.90
63289;DHT22;49412;48.162;-1.978;2022-10-14T14:47:37;20.20;99.90
63289;DHT22;49412;48.162;-1.978;2022-10-14T14:50:03;20.20;99.90
63289;DHT22;49412;48.162;-1.978;2022-10-14T14:52:29;20.10;99.90
63289;DHT22;49412;48.162;-1.978;2022-10-14T14:54:55;20.10;99.90
63289;DHT22;49412;48.162;-1.978;2022-10-14T14:57:20;20.10;99.90
63289;DHT22;49412;48.162;-1.978;2022-10-14T15:02:41;20.00;99.90
63289;DHT22;49412;48.162;-1.978;2022-10-14T15:05:09;19.90;99.90
63289;DHT22;49412;48.162;-1.978;2022-10-14T15:07:36;19.90;99.90
63289;DHT22;49412;48.162;-1.978;2022-10-14T15:10:03;19.60;99.90
63289;DHT22;49412;48.162;-1.978;2022-10-14T15:12:30;19.60;99.90
63289;DHT22;49412;48.162;-1.978;2022-10-14T15:14:59;19.60;99.90
63289;DHT22;49412;48.162;-1.978;2022-10-14T15:17:27;19.70;99.90
63289;DHT22;49412;48.162;-1.978;2022-10-14T15:19:54;19.80;99.90
63289;DHT22;49412;48.162;-1.978;2022-10-14T15:22:21;19.90;99.90
63289;DHT22;49412;48.162;-1.978;2022-10-14T15:24:59;19.80;99.90
63289;DHT22;49412;48.162;-1.978;2022-10-14T15:30:16;19.80;99.90
63289;DHT22;49412;48.162;-1.978;2022-10-14T15:32:41;19.70;99.90
63289;DHT22;49412;48.162;-1.978;2022-10-14T15:35:10;19.70;99.90
63289;DHT22;49412;48.162;-1.978;2022-10-14T15:37:36;19.60;99.90
63289;DHT22;49412;48.162;-1.978;2022-10-14T15:42:54;19.40;99.90
63289;DHT22;49412;48.162;-1.978;2022-10-14T15:45:20;19.20;99.90
63289;DHT22;49412;48.162;-1.978;2022-10-14T15:47:46;19.10;99.90
63289;DHT22;49412;48.162;-1.978;2022-10-14T15:50:18;18.90;99.90
63289;DHT22;49412;48.162;-1.978;2022-10-14T15:52:44;18.80;99.90
63289;DHT22;49412;48.162;-1.978;2022-10-14T15:55:17;18.70;99.90
63289;DHT22;49412;48.162;-1.978;2022-10-14T15:57:46;18.70;99.90
63289;DHT22;49412;48.162;-1.978;2022-10-14T16:00:14;18.60;99.90
63289;DHT22;49412;48.162;-1.978;2022-10-14T16:02:41;18.60;99.90
63289;DHT22;49412;48.162;-1.978;2022-10-14T16:05:08;18.60;99.90
63289;DHT22;49412;48.162;-1.978;2022-10-14T16:07:34;18.50;99.90
63289;DHT22;49412;48.162;-1.978;2022-10-14T16:09:59;18.40;99.90
63289;DHT22;49412;48.162;-1.978;2022-10-14T16:12:25;18.30;99.90
63289;DHT22;49412;48.162;-1.978;2022-10-14T16:14:51;18.10;99.90
63289;DHT22;49412;48.162;-1.978;2022-10-14T16:17:16;18.00;99.90
63289;DHT22;49412;48.162;-1.978;2022-10-14T16:19:43;18.10;99.90
63289;DHT22;49412;48.162;-1.978;2022-10-14T16:22:09;18.10;99.90
63289;DHT22;49412;48.162;-1.978;2022-10-14T16:24:34;18.10;99.90
63289;DHT22;49412;48.162;-1.978;2022-10-14T16:27:00;18.10;99.90
63289;DHT22;49412;48.162;-1.978;2022-10-14T16:29:25;18.00;99.90
63289;DHT22;49412;48.162;-1.978;2022-10-14T16:31:52;17.90;99.90
63289;DHT22;49412;48.162;-1.978;2022-10-14T16:34:19;17.80;99.90
63289;DHT22;49412;48.162;-1.978;2022-10-14T16:36:45;17.70;99.90
63289;DHT22;49412;48.162;-1.978;2022-10-14T16:39:11;17.80;99.90
63289;DHT22;49412;48.162;-1.978;2022-10-14T16:41:37;17.80;99.90
63289;DHT22;49412;48.162;-1.978;2022-10-14T16:44:03;17.80;99.90
63289;DHT22;49412;48.162;-1.978;2022-10-14T16:46:29;17.80;99.90
63289;DHT22;49412;48.162;-1.978;2022-10-14T16:49:13;17.80;99.90
63289;DHT22;49412;48.162;-1.978;2022-10-14T16:51:42;17.60;99.90
63289;DHT22;49412;48.162;-1.978;2022-10-14T16:54:09;17.50;99.90
63289;DHT22;49412;48.162;-1.978;2022-10-14T16:56:35;17.60;99.90
63289;DHT22;49412;48.162;-1.978;2022-10-14T16:59:22;17.50;99.90
63289;DHT22;49412;48.162;-1.978;2022-10-14T17:01:53;17.50;99.90
63289;DHT22;49412;48.162;-1.978;2022-10-14T17:04:23;17.50;99.90
63289;DHT22;49412;48.162;-1.978;2022-10-14T17:06:53;17.50;99.90
63289;DHT22;49412;48.162;-1.978;2022-10-14T17:09:19;17.40;99.90
63289;DHT22;49412;48.162;-1.978;2022-10-14T17:11:45;17.50;99.90
63289;DHT22;49412;48.162;-1.978;2022-10-14T17:14:11;17.50;99.90
63289;DHT22;49412;48.162;-1.978;2022-10-14T17:16:41;17.40;99.90
63289;DHT22;49412;48.162;-1.978;2022-10-14T17:19:07;17.50;99.90
63289;DHT22;49412;48.162;-1.978;2022-10-14T17:21:32;17.40;99.90
63289;DHT22;49412;48.162;-1.978;2022-10-14T17:23:58;17.50;99.90
63289;DHT22;49412;48.162;-1.978;2022-10-14T17:26:27;17.60;99.90
63289;DHT22;49412;48.162;-1.978;2022-10-14T17:28:54;17.50;99.90
63289;DHT22;49412;48.162;-1.978;2022-10-14T17:31:20;17.70;99.90
63289;DHT22;49412;48.162;-1.978;2022-10-14T17:33:47;17.70;99.90